createdAt,value
2023-03-05T00:00:13.014Z,11.00
2023-03-05T00:02:40.019Z,9.33
2023-03-05T00:05:07.261Z,14.30
2023-03-05T00:07:35.692Z,9.83
2023-03-05T00:10:04.744Z,7.63
2023-03-05T00:12:31.590Z,14.07
2023-03-05T00:14:58.489Z,9.37
2023-03-05T00:17:25.322Z,10.23
2023-03-05T00:19:52.248Z,12.23
2023-03-05T00:22:19.032Z,11.13
2023-03-05T00:24:49.922Z,8.67
2023-03-05T00:27:16.747Z,11.43
2023-03-05T00:29:43.584Z,10.07
2023-03-05T00:32:10.505Z,11.37
2023-03-05T00:34:37.447Z,10.90
2023-03-05T00:37:04.676Z,9.63
2023-03-05T00:39:31.491Z,9.23
2023-03-05T00:41:59.811Z,10.10
2023-03-05T00:44:26.699Z,11.03
2023-03-05T00:46:53.588Z,16.93
2023-03-05T00:49:20.703Z,10.73
2023-03-05T00:51:47.549Z,10.63
2023-03-05T00:54:14.512Z,6.83
2023-03-05T00:56:41.336Z,7.23
2023-03-05T00:59:09.864Z,11.33
2023-03-05T01:01:36.795Z,12.93
2023-03-05T01:04:03.918Z,5.93
2023-03-05T01:06:30.915Z,8.40
2023-03-05T01:08:59.083Z,5.03
2023-03-05T01:11:26.241Z,9.47
2023-03-05T01:13:53.090Z,5.83
2023-03-05T01:16:21.459Z,7.23
2023-03-05T01:18:48.316Z,10.13
2023-03-05T01:21:15.165Z,10.60
2023-03-05T01:23:42.039Z,8.00
2023-03-05T01:26:09.524Z,5.03
2023-03-05T01:28:38.128Z,6.37
2023-03-05T01:31:08.348Z,7.63
2023-03-05T01:33:36.540Z,6.90
2023-03-05T01:36:06.539Z,6.80
2023-03-05T01:38:33.376Z,7.43
2023-03-05T01:41:00.509Z,9.97
2023-03-05T01:43:29.617Z,4.83
2023-03-05T01:46:34.802Z,6.47
2023-03-05T01:49:15.726Z,7.50
2023-03-05T01:51:50.377Z,5.70
2023-03-05T01:54:20.670Z,8.13
2023-03-05T01:56:51.334Z,6.67
2023-03-05T01:59:19.126Z,5.17
2023-03-05T02:01:50.624Z,4.97
2023-03-05T02:04:20.051Z,8.53
2023-03-05T02:06:47.405Z,7.77
2023-03-05T02:09:14.776Z,6.53
2023-03-05T02:11:42.361Z,6.93
2023-03-05T02:14:10.418Z,8.23
2023-03-05T02:16:38.903Z,7.50
2023-03-05T02:19:08.112Z,11.80
2023-03-05T02:21:40.933Z,4.93
2023-03-05T02:24:11.730Z,5.57
2023-03-05T02:26:38.681Z,8.53
2023-03-05T02:29:09.311Z,10.53
2023-03-05T02:31:38.942Z,10.83
2023-03-05T02:34:06.460Z,8.43
2023-03-05T02:36:33.488Z,7.93
2023-03-05T02:39:01.644Z,6.27
2023-03-05T02:41:28.766Z,8.97
2023-03-05T02:43:55.637Z,6.53
2023-03-05T02:46:22.697Z,9.77
2023-03-05T02:48:49.999Z,12.60
2023-03-05T02:51:16.992Z,9.43
2023-03-05T02:53:43.964Z,8.97
2023-03-05T02:56:12.864Z,7.10
2023-03-05T02:58:39.877Z,14.07
2023-03-05T03:01:07.960Z,9.60
2023-03-05T03:03:34.979Z,8.70
2023-03-05T03:06:02.048Z,10.37
2023-03-05T03:08:28.854Z,7.73
2023-03-05T03:10:56.472Z,9.83
2023-03-05T03:13:25.360Z,12.37
2023-03-05T03:16:02.022Z,10.37
2023-03-05T03:18:28.895Z,7.40
2023-03-05T03:20:55.757Z,8.77
2023-03-05T03:23:22.679Z,8.83
2023-03-05T03:25:49.464Z,8.80
2023-03-05T03:28:16.410Z,7.60
2023-03-05T03:30:44.728Z,11.50
2023-03-05T03:33:11.659Z,9.93
2023-03-05T03:35:38.698Z,7.90
2023-03-05T03:38:05.562Z,9.73
2023-03-05T03:40:32.782Z,9.10
2023-03-05T03:42:59.611Z,8.00
2023-03-05T03:45:26.980Z,7.63
2023-03-05T03:47:55.221Z,5.70
2023-03-05T03:50:24.901Z,7.43
2023-03-05T03:52:52.085Z,11.57
2023-03-05T03:55:19.057Z,10.57
2023-03-05T03:57:45.974Z,10.27
2023-03-05T04:00:13.936Z,6.67
2023-03-05T04:02:40.911Z,6.73
2023-03-05T04:05:09.996Z,8.50
2023-03-05T04:07:39.937Z,6.77
2023-03-05T04:10:07.651Z,7.90
2023-03-05T04:12:34.472Z,11.33
2023-03-05T04:15:01.365Z,8.87
2023-03-05T04:17:28.238Z,4.23
2023-03-05T04:19:55.144Z,4.40
2023-03-05T04:22:23.340Z,6.53
2023-03-05T04:24:50.287Z,5.93
2023-03-05T04:27:17.169Z,5.27
2023-03-05T04:29:44.207Z,3.90
2023-03-05T04:32:11.050Z,8.97
2023-03-05T04:34:38.427Z,7.33
2023-03-05T04:37:05.566Z,5.73
2023-03-05T04:39:33.838Z,7.87
2023-03-05T04:42:00.760Z,6.23
2023-03-05T04:44:27.514Z,4.37
2023-03-05T04:46:54.321Z,2.53
2023-03-05T04:49:21.158Z,4.23
2023-03-05T04:51:48.129Z,5.40
2023-03-05T04:54:14.998Z,6.57
2023-03-05T04:56:43.147Z,3.10
2023-03-05T04:59:10.044Z,3.53
2023-03-05T05:01:37.518Z,4.23
2023-03-05T05:04:04.366Z,4.50
2023-03-05T05:06:31.252Z,2.50
2023-03-05T05:08:58.148Z,1.83
2023-03-05T05:11:24.974Z,2.70
2023-03-05T05:13:53.207Z,4.27
2023-03-05T05:16:20.298Z,4.33
2023-03-05T05:18:47.251Z,1.97
2023-03-05T05:21:15.214Z,4.93
2023-03-05T05:23:42.160Z,3.70
2023-03-05T05:26:14.175Z,4.13
2023-03-05T05:28:43.442Z,2.63
2023-03-05T05:31:13.609Z,3.20
2023-03-05T05:33:40.952Z,2.07
2023-03-05T05:36:10.832Z,6.97
2023-03-05T05:38:37.639Z,4.53
2023-03-05T05:41:05.330Z,4.07
2023-03-05T05:43:32.276Z,3.00
2023-03-05T05:46:00.816Z,6.87
2023-03-05T05:48:29.904Z,5.10
2023-03-05T05:50:57.252Z,2.70
2023-03-05T05:53:25.392Z,2.30
2023-03-05T05:55:52.608Z,2.97
2023-03-05T05:58:19.520Z,4.53
2023-03-05T06:00:46.375Z,2.80
2023-03-05T06:03:13.559Z,4.50
2023-03-05T06:05:43.293Z,3.73
2023-03-05T06:08:10.670Z,3.83
2023-03-05T06:10:37.524Z,4.93
2023-03-05T06:13:04.670Z,4.73
2023-03-05T06:15:31.863Z,3.50
2023-03-05T06:17:59.567Z,3.93
2023-03-05T06:20:28.391Z,4.30
2023-03-05T06:22:56.648Z,5.20
2023-03-05T06:25:23.619Z,3.97
2023-03-05T06:27:50.548Z,3.43
2023-03-05T06:30:17.724Z,3.30
2023-03-05T06:32:44.690Z,4.63
2023-03-05T06:35:11.884Z,5.87
2023-03-05T06:37:38.786Z,5.00
2023-03-05T06:40:08.700Z,2.33
2023-03-05T06:42:36.308Z,3.13
2023-03-05T06:45:03.619Z,7.10
2023-03-05T06:47:31.321Z,5.83
2023-03-05T06:49:58.328Z,3.60
2023-03-05T06:52:25.211Z,4.07
2023-03-05T06:54:55.618Z,4.40
2023-03-05T06:57:24.100Z,4.50
2023-03-05T06:59:50.983Z,5.93
2023-03-05T07:02:19.209Z,3.43
2023-03-05T07:04:46.468Z,6.13
2023-03-05T07:07:13.317Z,4.27
2023-03-05T07:09:42.912Z,6.07
2023-03-05T07:12:10.530Z,6.60
2023-03-05T07:14:39.277Z,3.90
2023-03-05T07:17:06.351Z,6.33
2023-03-05T07:19:33.652Z,7.60
2023-03-05T07:22:00.524Z,26.80
2023-03-05T07:24:29.923Z,19.03
2023-03-05T07:26:57.490Z,8.27
2023-03-05T07:29:24.602Z,8.50
2023-03-05T07:31:53.696Z,7.47
2023-03-05T07:34:21.382Z,6.60
2023-03-05T07:36:50.402Z,4.67
2023-03-05T07:39:19.584Z,8.00
2023-03-05T07:41:46.528Z,6.83
2023-03-05T07:44:13.530Z,9.53
2023-03-05T07:46:40.469Z,12.20
2023-03-05T07:49:08.672Z,7.47
2023-03-05T07:51:35.690Z,9.30
2023-03-05T07:54:02.851Z,8.27
2023-03-05T07:56:32.075Z,11.97
2023-03-05T07:58:59.906Z,9.53
2023-03-05T08:01:26.852Z,9.70
2023-03-05T08:03:53.734Z,8.17
2023-03-05T08:06:22.077Z,8.67
2023-03-05T08:08:49.138Z,8.50
2023-03-05T08:11:16.916Z,8.00
2023-03-05T08:13:44.978Z,9.10
2023-03-05T08:16:14.225Z,9.70
2023-03-05T08:18:41.382Z,8.13
2023-03-05T08:21:16.362Z,7.53
2023-03-05T08:23:44.680Z,11.20
2023-03-05T08:26:13.396Z,9.13
2023-03-05T08:28:40.218Z,8.67
2023-03-05T08:31:09.452Z,10.40
2023-03-05T08:33:36.521Z,7.97
2023-03-05T08:36:03.744Z,8.70
2023-03-05T08:38:30.783Z,8.13
2023-03-05T08:40:59.220Z,9.10
2023-03-05T08:43:26.040Z,10.10
2023-03-05T08:45:53.597Z,10.23
2023-03-05T08:48:20.861Z,9.93
2023-03-05T08:50:47.733Z,12.03
2023-03-05T08:53:14.735Z,8.07
2023-03-05T08:55:44.119Z,9.60
2023-03-05T08:58:14.792Z,9.67
2023-03-05T09:00:41.738Z,7.93
2023-03-05T09:03:09.839Z,9.07
2023-03-05T09:05:38.982Z,10.87
2023-03-05T09:08:05.967Z,11.50
2023-03-05T09:10:32.762Z,7.90
2023-03-05T09:12:59.682Z,10.40
2023-03-05T09:15:27.911Z,9.57
2023-03-05T09:17:54.852Z,8.70
2023-03-05T09:20:21.914Z,9.93
2023-03-05T09:22:48.778Z,8.43
2023-03-05T09:25:15.599Z,14.70
2023-03-05T09:27:43.834Z,12.57
2023-03-05T09:30:13.004Z,12.33
2023-03-05T09:32:41.387Z,12.43
2023-03-05T09:35:09.567Z,8.90
2023-03-05T09:37:36.642Z,9.33
2023-03-05T09:40:04.554Z,10.07
2023-03-05T09:42:45.663Z,9.37
2023-03-05T09:45:20.668Z,12.43
2023-03-05T09:47:57.107Z,10.40
2023-03-05T09:50:34.710Z,9.87
2023-03-05T09:53:06.193Z,12.43
2023-03-05T09:55:40.424Z,10.73
2023-03-05T09:58:12.807Z,13.97
2023-03-05T10:00:43.965Z,9.00
2023-03-05T10:03:17.645Z,9.27
2023-03-05T10:06:07.308Z,11.07
2023-03-05T10:08:46.410Z,10.40
2023-03-05T10:11:39.632Z,8.63
2023-03-05T10:14:13.778Z,10.50
2023-03-05T10:17:02.266Z,10.40
2023-03-05T10:19:47.441Z,8.93
2023-03-05T10:22:19.842Z,9.27
2023-03-05T10:24:59.887Z,12.70
2023-03-05T10:27:40.063Z,11.67
2023-03-05T10:30:20.771Z,10.87
2023-03-05T10:32:54.130Z,11.03
2023-03-05T10:36:11.176Z,11.83
2023-03-05T10:38:53.328Z,10.33
2023-03-05T10:41:29.235Z,10.70
2023-03-05T10:44:00.984Z,12.63
2023-03-05T10:46:34.588Z,15.33
2023-03-05T10:49:06.377Z,11.37
2023-03-05T10:51:36.362Z,14.17
2023-03-05T10:54:13.300Z,12.07
2023-03-05T10:56:40.282Z,11.23
2023-03-05T10:59:07.109Z,13.23
2023-03-05T11:01:34.314Z,13.50
2023-03-05T11:04:03.725Z,12.40
2023-03-05T11:06:36.639Z,15.47
2023-03-05T11:09:29.347Z,13.60
2023-03-05T11:12:12.060Z,12.23
2023-03-05T11:14:41.759Z,13.37
2023-03-05T11:17:30.636Z,14.50
2023-03-05T11:19:58.807Z,13.67
2023-03-05T11:22:26.043Z,10.20
2023-03-05T11:25:16.265Z,9.97
2023-03-05T11:27:51.567Z,10.53
2023-03-05T11:30:22.256Z,10.13
2023-03-05T11:32:49.223Z,11.40
2023-03-05T11:35:31.022Z,11.90
2023-03-05T11:38:01.414Z,10.47
2023-03-05T11:40:31.095Z,9.63
2023-03-05T11:43:00.587Z,7.10
2023-03-05T11:45:30.361Z,9.10
2023-03-05T11:48:01.706Z,8.97
2023-03-05T11:50:30.350Z,9.63
2023-03-05T11:53:00.127Z,8.63
2023-03-05T11:55:31.313Z,9.13
2023-03-05T11:58:12.761Z,9.60
2023-03-05T12:00:43.829Z,9.03
2023-03-05T12:03:15.122Z,8.87
2023-03-05T12:05:45.743Z,6.77
2023-03-05T12:08:15.694Z,8.37
2023-03-05T12:10:44.356Z,5.87
2023-03-05T12:13:19.803Z,7.13
2023-03-05T12:15:59.886Z,9.07
2023-03-05T12:18:38.692Z,6.67
2023-03-05T12:21:08.415Z,8.50
2023-03-05T12:23:47.197Z,9.33
2023-03-05T12:26:15.701Z,8.10
2023-03-05T12:28:55.855Z,7.00
2023-03-05T12:31:37.955Z,6.07
2023-03-05T12:34:56.224Z,9.13
2023-03-05T12:37:58.273Z,6.87
2023-03-05T12:40:26.352Z,7.57
2023-03-05T12:42:57.339Z,6.40
2023-03-05T12:45:40.212Z,5.87
2023-03-05T12:48:42.589Z,8.33
2023-03-05T12:51:36.091Z,5.77
2023-03-05T12:54:27.594Z,4.43
2023-03-05T12:56:56.412Z,3.47
2023-03-05T12:59:29.730Z,4.07
2023-03-05T13:01:59.345Z,4.70
2023-03-05T13:04:30.362Z,4.57
2023-03-05T13:07:02.067Z,3.73
2023-03-05T13:09:33.585Z,3.33
2023-03-05T13:12:02.696Z,4.37
2023-03-05T13:14:39.397Z,3.70
2023-03-05T13:17:25.821Z,2.10
2023-03-05T13:19:52.988Z,5.17
2023-03-05T13:22:19.861Z,3.47
2023-03-05T13:24:47.188Z,3.50
2023-03-05T13:27:21.192Z,2.23
2023-03-05T13:29:53.405Z,2.33
2023-03-05T13:32:25.883Z,5.37
2023-03-05T13:34:55.810Z,11.40
2023-03-05T13:37:25.834Z,3.23
2023-03-05T13:39:55.983Z,22.67
2023-03-05T13:42:25.750Z,12.93
2023-03-05T13:44:59.186Z,7.40
2023-03-05T13:47:28.682Z,3.27
2023-03-05T13:49:57.407Z,2.93
2023-03-05T13:52:25.201Z,6.87
2023-03-05T13:54:52.175Z,3.43
2023-03-05T13:57:34.921Z,2.47
2023-03-05T14:00:04.283Z,2.20
2023-03-05T14:02:33.336Z,2.10
2023-03-05T14:05:00.609Z,2.07
2023-03-05T14:07:33.628Z,11.60
2023-03-05T14:10:00.783Z,3.20
2023-03-05T14:12:33.487Z,4.40
2023-03-05T14:15:02.436Z,3.40
2023-03-05T14:17:37.326Z,6.40
2023-03-05T14:20:19.680Z,5.10
2023-03-05T14:22:50.804Z,5.13
2023-03-05T14:25:30.065Z,3.43
2023-03-05T14:27:57.557Z,2.77
2023-03-05T14:30:26.026Z,4.13
2023-03-05T14:32:55.792Z,3.43
2023-03-05T14:35:25.413Z,3.70
2023-03-05T14:37:54.661Z,3.23
2023-03-05T14:40:26.991Z,2.67
2023-03-05T14:42:55.937Z,4.73
2023-03-05T14:45:25.532Z,3.50
2023-03-05T14:47:56.081Z,4.90
2023-03-05T14:50:24.649Z,4.40
2023-03-05T14:52:54.453Z,4.60
2023-03-05T14:55:24.497Z,4.50
2023-03-05T14:57:54.069Z,3.10
2023-03-05T15:00:23.010Z,4.17
2023-03-05T15:02:50.440Z,3.73
2023-03-05T15:05:19.745Z,7.30
2023-03-05T15:07:47.580Z,4.80
2023-03-05T15:10:15.744Z,4.67
2023-03-05T15:12:44.143Z,2.90
2023-03-05T15:15:13.704Z,5.67
2023-03-05T15:17:43.078Z,4.80
2023-03-05T15:20:15.995Z,4.63
2023-03-05T15:22:44.267Z,3.20
2023-03-05T15:25:11.891Z,3.80
2023-03-05T15:27:41.034Z,6.00
2023-03-05T15:30:21.490Z,3.70
2023-03-05T15:32:48.863Z,4.70
2023-03-05T15:35:15.833Z,4.37
2023-03-05T15:37:44.202Z,8.27
2023-03-05T15:40:12.408Z,3.97
2023-03-05T15:42:39.661Z,4.53
2023-03-05T15:45:07.574Z,3.07
2023-03-05T15:47:34.682Z,3.27
2023-03-05T15:50:01.816Z,3.10
2023-03-05T15:52:28.720Z,4.03
2023-03-05T15:54:56.970Z,4.20
2023-03-05T15:57:23.988Z,5.03
2023-03-05T15:59:50.909Z,4.67
2023-03-05T16:02:18.790Z,2.93
2023-03-05T16:04:45.732Z,4.27
2023-03-05T16:07:14.341Z,5.10
2023-03-05T16:09:45.779Z,5.03
2023-03-05T16:12:18.098Z,5.23
2023-03-05T16:14:45.922Z,4.93
2023-03-05T16:17:14.350Z,4.70
2023-03-05T16:19:44.332Z,6.63
2023-03-05T16:22:11.177Z,4.90
2023-03-05T16:24:38.220Z,5.17
2023-03-05T16:27:05.355Z,5.50
2023-03-05T16:29:33.835Z,7.67
2023-03-05T16:32:02.506Z,8.63
2023-03-05T16:34:29.469Z,5.70
2023-03-05T16:36:56.408Z,9.17
2023-03-05T16:39:23.464Z,5.73
2023-03-05T16:41:50.924Z,7.00
2023-03-05T16:44:17.773Z,5.03
2023-03-05T16:46:49.159Z,6.37
2023-03-05T16:49:16.070Z,5.40
2023-03-05T16:51:42.865Z,7.03
2023-03-05T16:54:10.207Z,5.33
2023-03-05T16:56:37.273Z,7.23
2023-03-05T16:59:04.406Z,7.03
2023-03-05T17:01:31.736Z,5.90
2023-03-05T17:04:00.599Z,8.93
2023-03-05T17:06:29.627Z,4.97
2023-03-05T17:08:56.852Z,6.70
2023-03-05T17:11:25.715Z,5.67
2023-03-05T17:13:52.986Z,7.70
2023-03-05T17:16:20.624Z,6.33
2023-03-05T17:18:47.930Z,5.43
2023-03-05T17:21:16.637Z,5.80
2023-03-05T17:23:43.962Z,6.33
2023-03-05T17:26:13.460Z,7.23
2023-03-05T17:28:40.394Z,7.97
2023-03-05T17:31:07.731Z,6.87
2023-03-05T17:33:35.443Z,8.00
2023-03-05T17:36:03.587Z,9.17
2023-03-05T17:38:32.252Z,6.40
2023-03-05T17:40:59.220Z,8.33
2023-03-05T17:43:26.195Z,6.53
2023-03-05T17:45:53.126Z,6.00
2023-03-05T17:48:20.035Z,7.70
2023-03-05T17:50:46.913Z,9.93
2023-03-05T17:53:14.045Z,9.00
2023-03-05T17:55:42.422Z,13.83
2023-03-05T17:58:09.474Z,7.93
2023-03-05T18:00:36.899Z,6.43
2023-03-05T18:03:04.872Z,8.23
2023-03-05T18:05:32.462Z,7.83
2023-03-05T18:08:00.677Z,11.87
2023-03-05T18:10:28.164Z,7.97
2023-03-05T18:12:56.906Z,7.40
2023-03-05T18:15:28.915Z,6.57
2023-03-05T18:17:56.385Z,11.37
2023-03-05T18:20:26.599Z,8.07
2023-03-05T18:22:53.568Z,8.23
2023-03-05T18:25:20.577Z,6.57
2023-03-05T18:27:47.619Z,5.63
2023-03-05T18:30:17.391Z,8.03
2023-03-05T18:32:45.485Z,5.07
2023-03-05T18:35:13.993Z,9.33
2023-03-05T18:37:40.890Z,6.73
2023-03-05T18:40:09.716Z,6.93
2023-03-05T18:42:37.070Z,8.63
2023-03-05T18:45:04.812Z,5.50
2023-03-05T18:47:33.417Z,7.60
2023-03-05T18:50:00.346Z,7.47
2023-03-05T18:52:27.200Z,13.77
2023-03-05T18:54:55.172Z,7.70
2023-03-05T18:57:21.958Z,11.67
2023-03-05T18:59:48.812Z,8.33
2023-03-05T19:02:16.390Z,9.13
2023-03-05T19:04:44.713Z,9.70
2023-03-05T19:07:11.681Z,8.73
2023-03-05T19:09:52.057Z,11.43
2023-03-05T19:12:19.797Z,10.37
2023-03-05T19:14:46.929Z,7.97
2023-03-05T19:17:13.831Z,7.90
2023-03-05T19:19:42.804Z,7.57
2023-03-05T19:22:11.654Z,7.97
2023-03-05T19:24:39.099Z,8.23
2023-03-05T19:27:13.470Z,9.03
2023-03-05T19:29:41.672Z,9.27
2023-03-05T19:32:10.865Z,7.17
2023-03-05T19:34:37.978Z,8.00
2023-03-05T19:37:05.809Z,10.50
2023-03-05T19:39:34.441Z,8.60
2023-03-05T19:42:01.576Z,9.90
2023-03-05T19:44:28.537Z,10.60
2023-03-05T19:46:55.520Z,11.47
2023-03-05T19:49:23.039Z,8.20
2023-03-05T19:51:50.181Z,9.30
2023-03-05T19:54:20.537Z,7.87
2023-03-05T19:56:49.189Z,10.53
2023-03-05T19:59:20.999Z,9.67
2023-03-05T20:01:48.750Z,10.67
2023-03-05T20:04:18.057Z,9.37
2023-03-05T20:06:45.158Z,8.23
2023-03-05T20:09:12.009Z,8.77
2023-03-05T20:11:38.894Z,8.07
2023-03-05T20:14:08.068Z,10.73
2023-03-05T20:16:37.523Z,9.17
2023-03-05T20:19:05.904Z,10.37
2023-03-05T20:21:34.473Z,11.63
2023-03-05T20:24:03.853Z,7.57
2023-03-05T20:26:31.051Z,7.60
2023-03-05T20:28:58.227Z,9.23
2023-03-05T20:31:28.139Z,8.07
2023-03-05T20:33:56.252Z,10.90
2023-03-05T20:36:23.403Z,9.87
2023-03-05T20:38:50.388Z,11.43
2023-03-05T20:41:20.599Z,21.47
2023-03-05T20:43:49.516Z,12.10
2023-03-05T20:46:18.468Z,10.13
2023-03-05T20:48:50.407Z,9.77
2023-03-05T20:51:19.092Z,8.40
2023-03-05T20:53:46.202Z,10.17
2023-03-05T20:56:13.112Z,7.80
2023-03-05T20:58:40.033Z,9.60
2023-03-05T21:01:07.066Z,7.13
2023-03-05T21:03:34.089Z,9.23
2023-03-05T21:06:04.511Z,7.07
2023-03-05T21:08:31.558Z,10.23
2023-03-05T21:10:59.068Z,8.53
2023-03-05T21:13:26.315Z,11.80
2023-03-05T21:15:53.280Z,10.13
2023-03-05T21:18:20.235Z,11.17
2023-03-05T21:20:47.086Z,9.63
2023-03-05T21:23:15.761Z,9.07
2023-03-05T21:25:42.886Z,12.13
2023-03-05T21:28:12.468Z,13.20
2023-03-05T21:30:43.562Z,14.73
2023-03-05T21:33:12.717Z,15.00
2023-03-05T21:35:40.664Z,13.70
2023-03-05T21:38:08.516Z,12.63
2023-03-05T21:40:43.447Z,10.73
2023-03-05T21:43:10.885Z,12.97
2023-03-05T21:45:37.910Z,12.13
2023-03-05T21:48:05.775Z,14.07
2023-03-05T21:50:35.609Z,12.20
2023-03-05T21:53:03.164Z,12.97
2023-03-05T21:55:42.988Z,11.97
2023-03-05T21:58:11.187Z,14.57
2023-03-05T22:00:38.173Z,16.30
2023-03-05T22:03:05.093Z,14.40
2023-03-05T22:05:31.899Z,14.37
2023-03-05T22:07:58.789Z,11.73
2023-03-05T22:10:25.874Z,14.63
2023-03-05T22:13:03.045Z,13.73
2023-03-05T22:15:31.437Z,13.10
2023-03-05T22:17:58.291Z,16.20
2023-03-05T22:20:25.311Z,13.63
2023-03-05T22:22:52.389Z,14.07
2023-03-05T22:25:19.253Z,13.20
2023-03-05T22:27:46.132Z,12.30
2023-03-05T22:30:13.916Z,14.90
2023-03-05T22:32:42.093Z,13.87
2023-03-05T22:35:12.788Z,14.33
2023-03-05T22:37:41.432Z,13.17
2023-03-05T22:40:09.985Z,13.47
2023-03-05T22:42:36.846Z,12.53
2023-03-05T22:45:04.241Z,17.07
2023-03-05T22:47:31.377Z,13.87
2023-03-05T22:49:59.882Z,11.17
2023-03-05T22:52:26.922Z,12.83
2023-03-05T22:54:55.991Z,12.23
2023-03-05T22:57:22.974Z,13.87
2023-03-05T22:59:49.980Z,13.00
2023-03-05T23:02:17.171Z,14.30
2023-03-05T23:04:50.346Z,13.53
2023-03-05T23:07:20.598Z,10.00
2023-03-05T23:09:51.850Z,15.67
2023-03-05T23:12:18.829Z,10.70
2023-03-05T23:14:45.625Z,10.77
2023-03-05T23:17:12.491Z,10.93
2023-03-05T23:19:39.947Z,9.93
2023-03-05T23:22:08.667Z,9.97
2023-03-05T23:24:37.218Z,10.47
2023-03-05T23:27:07.544Z,10.03
2023-03-05T23:29:47.228Z,10.50
2023-03-05T23:32:14.152Z,9.23
2023-03-05T23:34:40.962Z,9.67
2023-03-05T23:37:07.849Z,12.60
2023-03-05T23:39:36.107Z,8.30
2023-03-05T23:42:03.019Z,11.77
2023-03-05T23:44:29.847Z,10.80
2023-03-05T23:46:56.728Z,10.80
2023-03-05T23:49:23.549Z,9.53
2023-03-05T23:51:50.418Z,9.27
2023-03-05T23:54:17.193Z,7.93
2023-03-05T23:56:45.397Z,12.50
2023-03-05T23:59:12.242Z,9.53
